createdAt,value
2022-09-26T00:03:55.596Z,48.98
2022-09-26T00:09:17.778Z,48.93
2022-09-26T00:14:39.504Z,49.24
2022-09-26T00:20:01.345Z,48.94
2022-09-26T00:25:22.994Z,48.82
2022-09-26T00:30:45.416Z,48.80
2022-09-26T00:36:07.870Z,48.87
2022-09-26T00:41:29.636Z,48.75
2022-09-26T00:46:51.699Z,48.79
2022-09-26T00:52:19.867Z,49.12
2022-09-26T00:58:00.260Z,48.82
2022-09-26T01:03:23.677Z,48.70
2022-09-26T01:08:58.889Z,48.80
2022-09-26T01:14:21.727Z,48.94
2022-09-26T01:19:56.905Z,48.91
2022-09-26T01:25:39.059Z,49.09
2022-09-26T01:31:16.914Z,49.12
2022-09-26T01:36:47.500Z,49.12
2022-09-26T01:42:26.712Z,48.88
2022-09-26T01:47:54.120Z,48.91
2022-09-26T01:53:25.723Z,49.18
2022-09-26T01:59:05.813Z,49.04
2022-09-26T02:04:42.980Z,48.99
2022-09-26T02:10:12.004Z,48.98
2022-09-26T02:15:37.717Z,48.71
2022-09-26T02:21:07.060Z,48.67
2022-09-26T02:26:29.436Z,48.90
2022-09-26T02:32:00.491Z,48.78
2022-09-26T02:37:23.101Z,48.52
2022-09-26T02:42:53.690Z,48.43
2022-09-26T02:48:22.332Z,48.71
2022-09-26T02:53:49.726Z,48.58
2022-09-26T02:59:22.817Z,48.35
2022-09-26T03:04:47.645Z,48.63
2022-09-26T03:10:11.871Z,48.73
2022-09-26T03:15:37.657Z,48.39
2022-09-26T03:20:59.763Z,48.89
2022-09-26T03:26:26.128Z,48.32
2022-09-26T03:31:50.538Z,48.40
2022-09-26T03:37:12.555Z,48.70
2022-09-26T03:42:34.455Z,48.74
2022-09-26T03:47:57.669Z,48.42
2022-09-26T03:53:19.378Z,48.33
2022-09-26T03:58:43.134Z,48.26
2022-09-26T04:04:07.756Z,48.58
2022-09-26T04:09:29.457Z,48.29
2022-09-26T04:14:51.098Z,48.56
2022-09-26T04:20:12.881Z,48.36
2022-09-26T04:25:38.020Z,47.98
2022-09-26T04:31:00.829Z,48.00
2022-09-26T04:36:22.706Z,48.01
2022-09-26T04:41:44.410Z,48.25
2022-09-26T04:47:06.082Z,47.85
2022-09-26T04:52:28.003Z,48.27
2022-09-26T04:57:50.153Z,47.85
2022-09-26T05:03:13.773Z,47.78
2022-09-26T05:08:40.810Z,47.94
2022-09-26T05:14:03.679Z,47.81
2022-09-26T05:19:25.340Z,47.74
2022-09-26T05:25:05.328Z,47.86
2022-09-26T05:30:31.384Z,47.65
2022-09-26T05:35:55.954Z,47.82
2022-09-26T05:41:18.182Z,47.88
2022-09-26T05:46:40.737Z,47.32
2022-09-26T05:52:04.048Z,47.85
2022-09-26T05:57:25.785Z,47.83
2022-09-26T06:02:55.221Z,47.35
2022-09-26T06:08:17.532Z,47.62
2022-09-26T06:13:40.619Z,47.47
2022-09-26T06:19:02.791Z,47.45
2022-09-26T06:24:24.478Z,47.62
2022-09-26T06:29:46.153Z,47.36
2022-09-26T06:35:08.359Z,47.42
2022-09-26T06:40:30.111Z,47.37
2022-09-26T06:45:52.044Z,46.83
2022-09-26T06:51:14.473Z,47.17
2022-09-26T06:56:36.218Z,46.98
2022-09-26T07:01:58.084Z,46.87
2022-09-26T07:07:19.990Z,46.54
2022-09-26T07:12:44.144Z,46.64
2022-09-26T07:18:07.165Z,46.54
2022-09-26T07:23:28.808Z,46.57
2022-09-26T07:28:54.482Z,46.49
2022-09-26T07:34:18.554Z,46.34
2022-09-26T07:39:40.774Z,45.92
2022-09-26T07:45:22.342Z,45.96
2022-09-26T07:50:46.261Z,45.94
2022-09-26T07:56:11.617Z,45.58
2022-09-26T08:01:33.410Z,45.74
2022-09-26T08:06:56.521Z,45.65
2022-09-26T08:12:18.357Z,45.82
2022-09-26T08:17:41.015Z,45.45
2022-09-26T08:23:02.759Z,45.30
2022-09-26T08:28:24.550Z,45.41
2022-09-26T08:33:47.840Z,45.42
2022-09-26T08:39:11.186Z,45.43
2022-09-26T08:44:54.196Z,45.69
2022-09-26T08:50:45.781Z,46.30
2022-09-26T08:56:19.492Z,46.65
2022-09-26T09:01:44.854Z,47.52
2022-09-26T09:07:20.050Z,48.11
2022-09-26T09:13:10.858Z,48.08
2022-09-26T09:18:51.681Z,48.53
2022-09-26T09:24:19.235Z,49.01
2022-09-26T09:30:18.249Z,49.29
2022-09-26T09:35:49.634Z,48.98
2022-09-26T09:41:19.303Z,49.48
2022-09-26T09:46:43.296Z,49.19
2022-09-26T09:52:10.717Z,49.56
2022-09-26T09:58:09.329Z,49.32
2022-09-26T10:03:37.908Z,49.44
2022-09-26T10:09:35.849Z,49.54
2022-09-26T10:15:02.429Z,49.49
2022-09-26T10:20:42.947Z,49.43
2022-09-26T10:26:10.347Z,49.43
2022-09-26T10:31:42.613Z,49.30
2022-09-26T10:37:25.652Z,49.56
2022-09-26T10:42:47.433Z,49.61
2022-09-26T10:48:12.506Z,49.79
2022-09-26T10:53:40.442Z,49.79
2022-09-26T10:59:04.528Z,49.55
2022-09-26T11:04:48.148Z,49.59
2022-09-26T11:10:17.226Z,49.85
2022-09-26T11:15:40.019Z,50.08
2022-09-26T11:21:27.840Z,49.92
2022-09-26T11:27:15.908Z,50.03
2022-09-26T11:32:43.213Z,49.77
2022-09-26T11:38:36.003Z,50.17
2022-09-26T11:44:26.417Z,50.32
2022-09-26T11:50:00.214Z,50.28
2022-09-26T11:55:56.544Z,50.55
2022-09-26T12:01:37.279Z,51.18
2022-09-26T12:07:16.521Z,51.74
2022-09-26T12:12:50.230Z,51.47
2022-09-26T12:18:22.522Z,52.77
2022-09-26T12:23:54.029Z,51.85
2022-09-26T12:29:42.771Z,52.10
2022-09-26T12:35:19.868Z,52.18
2022-09-26T12:41:20.116Z,52.10
2022-09-26T12:46:47.629Z,51.85
2022-09-26T12:52:36.054Z,52.26
2022-09-26T12:58:51.801Z,52.54
2022-09-26T13:04:38.857Z,52.15
2022-09-26T13:10:07.298Z,53.43
2022-09-26T13:15:35.495Z,53.62
2022-09-26T13:21:03.174Z,53.52
2022-09-26T13:26:34.023Z,53.11
2022-09-26T13:32:17.539Z,52.78
2022-09-26T13:38:17.541Z,52.74
2022-09-26T13:44:01.604Z,52.76
2022-09-26T13:49:28.683Z,52.79
2022-09-26T13:55:08.825Z,53.46
2022-09-26T14:00:30.556Z,53.36
2022-09-26T14:06:06.569Z,53.54
2022-09-26T14:11:49.373Z,53.91
2022-09-26T14:17:39.025Z,54.72
2022-09-26T14:23:02.145Z,54.68
2022-09-26T14:28:36.112Z,55.19
2022-09-26T14:34:12.673Z,54.91
2022-09-26T14:39:40.771Z,54.90
2022-09-26T14:45:27.370Z,55.15
2022-09-26T14:50:54.029Z,55.02
2022-09-26T14:56:27.561Z,54.25
2022-09-26T15:01:49.331Z,53.80
2022-09-26T15:07:34.197Z,53.57
2022-09-26T15:13:22.882Z,53.88
2022-09-26T15:18:58.322Z,54.00
2022-09-26T15:24:36.034Z,53.60
2022-09-26T15:30:18.681Z,53.87
2022-09-26T15:35:40.737Z,53.75
2022-09-26T15:41:04.348Z,53.66
2022-09-26T15:46:27.195Z,53.38
2022-09-26T15:51:53.756Z,53.52
2022-09-26T15:57:15.697Z,53.93
2022-09-26T16:02:37.507Z,53.64
2022-09-26T16:07:59.258Z,53.62
2022-09-26T16:13:25.736Z,53.76
2022-09-26T16:19:00.681Z,53.90
2022-09-26T16:24:34.473Z,53.78
2022-09-26T16:30:02.585Z,53.84
2022-09-26T16:35:29.782Z,54.08
2022-09-26T16:40:54.335Z,53.81
2022-09-26T16:46:18.317Z,53.42
2022-09-26T16:51:40.995Z,53.42
2022-09-26T16:57:05.732Z,53.49
2022-09-26T17:02:27.451Z,53.34
2022-09-26T17:07:50.140Z,53.74
2022-09-26T17:13:18.426Z,53.87
2022-09-26T17:18:41.277Z,53.84
2022-09-26T17:24:03.030Z,53.58
2022-09-26T17:29:31.830Z,53.68
2022-09-26T17:34:53.771Z,53.79
2022-09-26T17:40:19.874Z,53.98
2022-09-26T17:45:48.058Z,53.91
2022-09-26T17:51:14.069Z,54.80
2022-09-26T17:56:36.025Z,54.82
2022-09-26T18:02:03.903Z,54.31
2022-09-26T18:07:34.255Z,54.07
2022-09-26T18:12:59.558Z,54.26
2022-09-26T18:18:22.954Z,54.08
2022-09-26T18:23:52.143Z,53.72
2022-09-26T18:29:20.136Z,53.40
2022-09-26T18:34:41.825Z,53.54
2022-09-26T18:40:04.502Z,52.83
2022-09-26T18:45:29.237Z,52.80
2022-09-26T18:50:51.604Z,53.23
2022-09-26T18:56:31.721Z,53.44
2022-09-26T19:01:54.157Z,53.66
2022-09-26T19:07:21.082Z,53.86
2022-09-26T19:12:43.585Z,54.04
2022-09-26T19:18:05.456Z,54.16
2022-09-26T19:23:32.880Z,54.45
2022-09-26T19:28:56.775Z,54.32
2022-09-26T19:34:19.573Z,55.04
2022-09-26T19:39:41.341Z,55.01
2022-09-26T19:45:03.426Z,54.94
2022-09-26T19:50:28.423Z,54.63
2022-09-26T19:55:50.618Z,54.75
2022-09-26T20:01:19.165Z,54.95
2022-09-26T20:06:41.067Z,54.48
2022-09-26T20:12:02.686Z,54.66
2022-09-26T20:17:27.008Z,54.34
2022-09-26T20:22:51.139Z,53.54
2022-09-26T20:28:13.920Z,53.43
2022-09-26T20:33:36.745Z,53.33
2022-09-26T20:39:05.336Z,53.27
2022-09-26T20:44:30.334Z,53.11
2022-09-26T20:49:57.760Z,53.17
2022-09-26T20:55:19.761Z,53.23
2022-09-26T21:00:43.376Z,52.96
2022-09-26T21:06:05.233Z,53.00
2022-09-26T21:11:26.938Z,53.05
2022-09-26T21:16:51.989Z,53.10
2022-09-26T21:22:14.471Z,52.91
2022-09-26T21:27:36.765Z,52.63
2022-09-26T21:32:59.943Z,52.86
2022-09-26T21:38:21.742Z,52.83
2022-09-26T21:43:54.304Z,52.61
2022-09-26T21:49:16.137Z,52.73
2022-09-26T21:54:41.783Z,52.84
2022-09-26T22:00:08.101Z,52.99
2022-09-26T22:05:29.807Z,53.17
2022-09-26T22:10:54.412Z,52.99
2022-09-26T22:16:16.467Z,53.28
2022-09-26T22:21:38.345Z,53.38
2022-09-26T22:26:59.987Z,52.94
2022-09-26T22:32:21.734Z,53.07
2022-09-26T22:37:43.371Z,53.01
2022-09-26T22:43:05.026Z,53.11
2022-09-26T22:48:30.555Z,53.39
2022-09-26T22:53:52.092Z,53.18
2022-09-26T22:59:14.170Z,53.42
2022-09-26T23:04:56.155Z,53.66
2022-09-26T23:10:22.247Z,53.70
2022-09-26T23:15:44.040Z,53.77
2022-09-26T23:21:20.217Z,53.67
2022-09-26T23:26:41.957Z,53.55
2022-09-26T23:32:03.919Z,53.35
2022-09-26T23:37:25.566Z,53.78
2022-09-26T23:42:47.284Z,53.54
2022-09-26T23:48:08.997Z,53.52
2022-09-26T23:53:31.092Z,54.00
2022-09-26T23:58:52.737Z,53.44
